createdAt,value
2019-05-21T00:00:45.876Z,17.20
2019-05-21T00:01:45.852Z,17.50
2019-05-21T00:02:45.845Z,16.90
2019-05-21T00:03:45.835Z,17.50
2019-05-21T00:04:45.823Z,16.70
2019-05-21T00:05:45.817Z,17.60
2019-05-21T00:06:45.803Z,17.40
2019-05-21T00:07:45.786Z,18.30
2019-05-21T00:08:45.793Z,18.20
2019-05-21T00:09:45.779Z,18.70
2019-05-21T00:10:45.754Z,18.60
2019-05-21T00:11:45.743Z,18.70
2019-05-21T00:12:45.738Z,20.10
2019-05-21T00:13:45.721Z,19.40
2019-05-21T00:14:45.718Z,19.30
2019-05-21T00:15:45.721Z,19.90
2019-05-21T00:16:45.690Z,20.50
2019-05-21T00:17:45.682Z,19.20
2019-05-21T00:18:45.669Z,19.20
2019-05-21T00:19:45.660Z,19.30
2019-05-21T00:20:45.659Z,20.50
2019-05-21T00:21:45.661Z,19.90
2019-05-21T00:22:45.622Z,19.10
2019-05-21T00:23:45.616Z,19.40
2019-05-21T00:24:45.674Z,20.00
2019-05-21T00:25:45.595Z,20.30
2019-05-21T00:26:45.585Z,20.60
2019-05-21T00:27:45.576Z,21.40
2019-05-21T00:28:45.558Z,20.20
2019-05-21T00:29:45.551Z,20.20
2019-05-21T00:30:45.544Z,20.80
2019-05-21T00:31:45.544Z,21.00
2019-05-21T00:32:45.520Z,20.70
2019-05-21T00:33:45.507Z,20.00
2019-05-21T00:34:45.491Z,19.90
2019-05-21T00:35:45.486Z,19.70
2019-05-21T00:36:45.489Z,19.10
2019-05-21T00:37:45.464Z,19.90
2019-05-21T00:38:45.455Z,19.40
2019-05-21T00:39:45.441Z,20.40
2019-05-21T00:40:45.431Z,20.20
2019-05-21T00:41:45.430Z,19.20
2019-05-21T00:42:45.417Z,19.60
2019-05-21T00:43:45.396Z,20.30
2019-05-21T00:44:45.388Z,19.00
2019-05-21T00:45:45.377Z,21.60
2019-05-21T00:46:45.370Z,20.20
2019-05-21T00:47:45.364Z,20.80
2019-05-21T00:48:45.345Z,20.80
2019-05-21T00:49:45.335Z,20.70
2019-05-21T00:50:45.317Z,19.80
2019-05-21T00:51:45.312Z,20.30
2019-05-21T00:52:45.304Z,21.10
2019-05-21T00:53:45.285Z,21.00
2019-05-21T00:54:45.280Z,19.60
2019-05-21T00:55:45.296Z,19.60
2019-05-21T00:56:45.256Z,19.70
2019-05-21T00:57:45.250Z,18.10
2019-05-21T00:58:45.231Z,19.40
2019-05-21T00:59:45.223Z,19.30
2019-05-21T01:00:45.211Z,18.90
2019-05-21T01:01:45.207Z,19.70
2019-05-21T01:02:45.210Z,19.30
2019-05-21T01:03:45.183Z,19.10
2019-05-21T01:04:59.606Z,18.60
2019-05-21T01:05:46.159Z,20.10
2019-05-21T01:06:45.148Z,19.20
2019-05-21T01:07:45.146Z,19.10
2019-05-21T01:08:45.127Z,20.80
2019-05-21T01:09:45.113Z,20.00
2019-05-21T01:10:45.107Z,20.70
2019-05-21T01:11:45.096Z,20.40
2019-05-21T01:12:45.091Z,19.60
2019-05-21T01:13:45.066Z,19.80
2019-05-21T01:14:45.058Z,19.80
2019-05-21T01:15:45.052Z,20.00
2019-05-21T01:16:45.035Z,20.20
2019-05-21T01:17:45.069Z,19.80
2019-05-21T01:18:45.022Z,20.10
2019-05-21T01:19:45.006Z,20.20
2019-05-21T01:20:44.992Z,20.00
2019-05-21T01:21:44.981Z,19.90
2019-05-21T01:22:44.970Z,21.00
2019-05-21T01:23:44.972Z,20.70
2019-05-21T01:24:44.957Z,20.60
2019-05-21T01:25:44.954Z,22.30
2019-05-21T01:26:44.931Z,21.50
2019-05-21T01:27:44.932Z,21.50
2019-05-21T01:28:44.908Z,21.00
2019-05-21T01:29:44.901Z,21.10
2019-05-21T01:30:44.886Z,21.30
2019-05-21T01:31:44.879Z,20.20
2019-05-21T01:32:44.873Z,20.10
2019-05-21T01:33:44.867Z,21.30
2019-05-21T01:34:44.847Z,20.80
2019-05-21T01:35:44.831Z,21.00
2019-05-21T01:36:44.822Z,21.00
2019-05-21T01:37:44.810Z,20.80
2019-05-21T01:38:44.804Z,21.40
2019-05-21T01:39:44.800Z,21.20
2019-05-21T01:40:44.786Z,21.30
2019-05-21T01:41:44.773Z,20.20
2019-05-21T01:42:44.767Z,20.30
2019-05-21T01:43:44.758Z,21.40
2019-05-21T01:44:44.743Z,20.80
2019-05-21T01:45:44.731Z,20.50
2019-05-21T01:46:44.718Z,20.70
2019-05-21T01:47:44.711Z,20.90
2019-05-21T01:48:44.705Z,20.30
2019-05-21T01:49:44.681Z,20.50
2019-05-21T01:50:44.675Z,20.30
2019-05-21T01:51:44.670Z,20.40
2019-05-21T01:52:44.648Z,19.90
2019-05-21T01:53:44.682Z,20.40
2019-05-21T01:54:44.627Z,19.50
2019-05-21T01:55:44.620Z,19.70
2019-05-21T01:56:44.605Z,20.00
2019-05-21T01:57:44.607Z,20.40
2019-05-21T01:58:44.584Z,19.10
2019-05-21T01:59:44.581Z,19.30
2019-05-21T02:00:44.568Z,20.00
2019-05-21T02:01:44.556Z,19.80
2019-05-21T02:02:44.539Z,20.70
2019-05-21T02:03:44.545Z,19.30
2019-05-21T02:04:44.532Z,20.00
2019-05-21T02:05:44.508Z,19.40
2019-05-21T02:06:44.504Z,20.50
2019-05-21T02:07:44.493Z,19.80
2019-05-21T02:08:44.481Z,20.40
2019-05-21T02:09:44.474Z,19.80
2019-05-21T02:10:44.468Z,19.50
2019-05-21T02:11:44.455Z,19.50
2019-05-21T02:12:44.435Z,19.30
2019-05-21T02:13:44.423Z,18.80
2019-05-21T02:14:44.417Z,19.50
2019-05-21T02:15:44.426Z,20.60
2019-05-21T02:16:44.392Z,19.70
2019-05-21T02:17:44.380Z,19.60
2019-05-21T02:18:44.371Z,19.20
2019-05-21T02:19:44.382Z,20.00
2019-05-21T02:20:44.355Z,19.50
2019-05-21T02:21:44.353Z,18.70
2019-05-21T02:22:44.328Z,18.20
2019-05-21T02:23:44.326Z,19.00
2019-05-21T02:24:44.316Z,18.60
2019-05-21T02:25:44.296Z,19.10
2019-05-21T02:26:44.295Z,19.80
2019-05-21T02:27:44.278Z,19.10
2019-05-21T02:28:44.268Z,19.20
2019-05-21T02:29:44.252Z,19.40
2019-05-21T02:30:44.255Z,19.40
2019-05-21T02:31:44.247Z,19.70
2019-05-21T02:32:44.237Z,19.90
2019-05-21T02:33:44.212Z,19.30
2019-05-21T02:34:44.206Z,19.20
2019-05-21T02:35:54.284Z,20.70
2019-05-21T02:36:45.183Z,20.20
2019-05-21T02:37:44.182Z,19.90
2019-05-21T02:38:44.158Z,20.00
2019-05-21T02:39:44.152Z,19.80
2019-05-21T02:40:44.142Z,19.20
2019-05-21T02:41:44.136Z,19.70
2019-05-21T02:42:44.127Z,19.20
2019-05-21T02:43:44.113Z,18.30
2019-05-21T02:44:44.093Z,18.90
2019-05-21T02:45:44.088Z,19.50
2019-05-21T02:46:44.083Z,20.10
2019-05-21T02:47:44.066Z,20.10
2019-05-21T02:48:44.059Z,19.00
2019-05-21T02:49:44.044Z,19.50
2019-05-21T02:50:44.030Z,18.70
2019-05-21T02:51:44.025Z,19.10
2019-05-21T02:52:44.051Z,19.80
2019-05-21T02:53:44.003Z,18.90
2019-05-21T02:54:43.990Z,20.00
2019-05-21T02:55:43.983Z,19.40
2019-05-21T02:56:43.968Z,19.90
2019-05-21T02:57:43.959Z,18.90
2019-05-21T02:58:43.970Z,19.40
2019-05-21T02:59:43.934Z,18.90
2019-05-21T03:00:43.927Z,19.30
2019-05-21T03:01:43.918Z,19.20
2019-05-21T03:02:43.906Z,19.60
2019-05-21T03:03:43.900Z,19.00
2019-05-21T03:04:43.884Z,19.80
2019-05-21T03:05:43.875Z,18.80
2019-05-21T03:06:43.860Z,18.50
2019-05-21T03:07:43.866Z,19.40
2019-05-21T03:08:43.847Z,19.70
2019-05-21T03:09:43.826Z,19.20
2019-05-21T03:10:43.824Z,19.10
2019-05-21T03:11:43.811Z,19.20
2019-05-21T03:12:43.802Z,20.40
2019-05-21T03:13:43.797Z,20.30
2019-05-21T03:14:43.777Z,19.20
2019-05-21T03:15:43.762Z,20.20
2019-05-21T03:16:43.779Z,20.30
2019-05-21T03:17:43.745Z,20.20
2019-05-21T03:18:43.748Z,19.60
2019-05-21T03:19:43.733Z,19.60
2019-05-21T03:20:43.720Z,19.90
2019-05-21T03:21:43.698Z,19.80
2019-05-21T03:22:43.694Z,18.70
2019-05-21T03:23:43.684Z,19.50
2019-05-21T03:24:43.667Z,19.70
2019-05-21T03:25:43.663Z,19.70
2019-05-21T03:26:43.659Z,21.70
2019-05-21T03:27:43.638Z,20.30
2019-05-21T03:28:43.624Z,19.70
2019-05-21T03:29:43.612Z,20.30
2019-05-21T03:30:43.612Z,19.90
2019-05-21T03:31:43.598Z,20.20
2019-05-21T03:32:43.581Z,19.50
2019-05-21T03:33:43.585Z,19.20
2019-05-21T03:34:43.580Z,19.10
2019-05-21T03:35:43.554Z,19.60
2019-05-21T03:36:43.543Z,64.20
2019-05-21T03:37:43.533Z,51.10
2019-05-21T03:38:43.524Z,75.40
2019-05-21T03:39:43.537Z,151.30
2019-05-21T03:40:43.497Z,64.70
2019-05-21T03:41:43.486Z,35.60
2019-05-21T03:42:43.479Z,24.40
2019-05-21T03:43:43.469Z,20.60
2019-05-21T03:44:58.351Z,20.10
2019-05-21T03:45:44.452Z,19.30
2019-05-21T03:46:43.435Z,19.40
2019-05-21T03:47:43.428Z,18.80
2019-05-21T03:48:43.413Z,19.50
2019-05-21T03:49:43.402Z,18.60
2019-05-21T03:50:43.428Z,20.20
2019-05-21T03:51:43.388Z,18.80
2019-05-21T03:52:43.368Z,19.40
2019-05-21T03:53:43.355Z,19.70
2019-05-21T03:54:43.345Z,19.70
2019-05-21T03:55:43.341Z,19.60
2019-05-21T03:56:43.341Z,19.60
2019-05-21T03:57:43.312Z,19.60
2019-05-21T03:58:43.308Z,19.70
2019-05-21T03:59:43.297Z,19.30
2019-05-21T04:00:43.319Z,20.30
2019-05-21T04:01:43.272Z,129.60
2019-05-21T04:02:43.262Z,109.60
2019-05-21T04:03:43.254Z,253.40
2019-05-21T04:04:43.246Z,117.20
2019-05-21T04:05:43.231Z,34.80
2019-05-21T04:06:51.971Z,21.70
2019-05-21T04:07:44.211Z,20.70
2019-05-21T04:08:43.199Z,19.30
2019-05-21T04:09:43.196Z,19.70
2019-05-21T04:10:43.179Z,19.60
2019-05-21T04:11:43.178Z,19.70
2019-05-21T04:12:43.154Z,18.70
2019-05-21T04:13:43.166Z,19.20
2019-05-21T04:14:43.134Z,20.50
2019-05-21T04:15:43.132Z,19.80
2019-05-21T04:16:43.123Z,19.60
2019-05-21T04:17:43.102Z,20.20
2019-05-21T04:18:43.103Z,19.20
2019-05-21T04:19:43.088Z,19.10
2019-05-21T04:20:43.068Z,19.90
2019-05-21T04:21:43.063Z,19.50
2019-05-21T04:22:43.065Z,19.90
2019-05-21T04:23:43.044Z,19.00
2019-05-21T04:24:43.027Z,19.10
2019-05-21T04:25:43.026Z,19.30
2019-05-21T04:26:43.008Z,19.00
2019-05-21T04:27:43.091Z,19.00
2019-05-21T04:28:42.986Z,19.10
2019-05-21T04:29:42.985Z,19.70
2019-05-21T04:30:42.969Z,19.30
2019-05-21T04:31:42.956Z,19.30
2019-05-21T04:32:42.959Z,20.40
2019-05-21T04:33:42.933Z,18.90
2019-05-21T04:34:42.932Z,19.30
2019-05-21T04:35:42.907Z,19.60
2019-05-21T04:36:42.898Z,19.90
2019-05-21T04:37:42.893Z,18.90
2019-05-21T04:38:42.891Z,18.70
2019-05-21T04:39:42.903Z,19.50
2019-05-21T04:40:42.860Z,19.00
2019-05-21T04:41:42.846Z,18.80
2019-05-21T04:42:42.831Z,19.10
2019-05-21T04:43:42.829Z,18.50
2019-05-21T04:44:42.815Z,19.10
2019-05-21T04:45:42.806Z,18.40
2019-05-21T04:46:42.793Z,18.90
2019-05-21T04:47:42.784Z,19.10
2019-05-21T04:48:42.803Z,19.00
2019-05-21T04:49:42.765Z,19.60
2019-05-21T04:50:42.745Z,18.80
2019-05-21T04:51:42.739Z,19.40
2019-05-21T04:52:42.725Z,18.90
2019-05-21T04:53:42.720Z,18.80
2019-05-21T04:54:42.716Z,18.50
2019-05-21T04:55:42.706Z,18.30
2019-05-21T04:56:42.679Z,17.60
2019-05-21T04:57:42.669Z,18.50
2019-05-21T04:58:42.663Z,17.70
2019-05-21T04:59:42.662Z,18.10
2019-05-21T05:00:42.641Z,18.90
2019-05-21T05:01:42.628Z,18.10
2019-05-21T05:02:42.613Z,24.00
2019-05-21T05:03:42.606Z,18.70
2019-05-21T05:04:42.593Z,22.50
2019-05-21T05:05:42.601Z,20.00
2019-05-21T05:06:42.587Z,18.10
2019-05-21T05:07:42.564Z,18.30
2019-05-21T05:08:42.555Z,18.50
2019-05-21T05:09:42.545Z,18.40
2019-05-21T05:10:42.874Z,17.80
2019-05-21T05:11:42.519Z,18.20
2019-05-21T05:12:42.515Z,20.20
2019-05-21T05:13:42.494Z,18.10
2019-05-21T05:14:42.487Z,17.70
2019-05-21T05:15:42.509Z,20.90
2019-05-21T05:16:42.469Z,17.20
2019-05-21T05:17:42.464Z,17.50
2019-05-21T05:18:42.442Z,18.20
2019-05-21T05:19:42.435Z,18.20
2019-05-21T05:20:42.422Z,17.50
2019-05-21T05:21:42.455Z,17.40
2019-05-21T05:22:42.430Z,18.40
2019-05-21T05:23:42.390Z,17.70
2019-05-21T05:24:42.381Z,17.60
2019-05-21T05:25:42.368Z,17.70
2019-05-21T05:26:42.398Z,17.40
2019-05-21T05:27:42.348Z,17.10
2019-05-21T05:28:42.338Z,17.10
2019-05-21T05:29:42.330Z,16.90
2019-05-21T05:30:42.343Z,16.80
2019-05-21T05:31:42.303Z,17.40
2019-05-21T05:32:42.305Z,17.40
2019-05-21T05:33:42.286Z,17.60
2019-05-21T05:34:42.273Z,16.90
2019-05-21T05:35:42.257Z,17.10
2019-05-21T05:36:42.302Z,16.10
2019-05-21T05:37:45.157Z,16.50
2019-05-21T05:38:43.225Z,16.20
2019-05-21T05:39:42.224Z,17.00
2019-05-21T05:40:42.206Z,16.10
2019-05-21T05:41:42.193Z,16.00
2019-05-21T05:42:42.195Z,17.40
2019-05-21T05:43:42.170Z,17.10
2019-05-21T05:44:42.166Z,16.10
2019-05-21T05:45:42.149Z,17.10
2019-05-21T05:46:42.143Z,16.10
2019-05-21T05:47:42.136Z,15.60
2019-05-21T05:48:42.115Z,16.10
2019-05-21T05:49:42.114Z,15.80
2019-05-21T05:50:42.099Z,15.30
2019-05-21T05:51:42.089Z,14.60
2019-05-21T05:52:42.177Z,16.10
2019-05-21T05:53:42.060Z,13.90
2019-05-21T05:54:42.051Z,13.80
2019-05-21T05:55:42.040Z,13.30
2019-05-21T05:56:42.033Z,12.90
2019-05-21T05:57:42.020Z,13.60
2019-05-21T05:58:42.025Z,13.80
2019-05-21T05:59:42.011Z,14.10
2019-05-21T06:00:41.996Z,14.20
2019-05-21T06:01:41.977Z,13.80
2019-05-21T06:02:41.976Z,14.10
2019-05-21T06:03:41.961Z,14.00
2019-05-21T06:04:41.967Z,12.90
2019-05-21T06:05:41.945Z,13.00
2019-05-21T06:06:41.929Z,13.00
2019-05-21T06:07:41.917Z,10.60
2019-05-21T06:08:41.909Z,11.20
2019-05-21T06:09:41.892Z,11.70
2019-05-21T06:10:41.897Z,12.80
2019-05-21T06:11:41.874Z,12.10
2019-05-21T06:12:41.862Z,12.30
2019-05-21T06:13:41.851Z,12.10
2019-05-21T06:14:41.850Z,12.00
2019-05-21T06:15:41.838Z,12.10
2019-05-21T06:16:41.839Z,11.30
2019-05-21T06:17:41.804Z,12.20
2019-05-21T06:18:41.799Z,13.60
2019-05-21T06:19:41.782Z,13.90
2019-05-21T06:20:41.787Z,14.80
2019-05-21T06:21:41.772Z,14.40
2019-05-21T06:22:41.750Z,14.00
2019-05-21T06:23:41.747Z,13.70
2019-05-21T06:24:41.734Z,14.00
2019-05-21T06:25:41.729Z,14.80
2019-05-21T06:26:41.730Z,14.00
2019-05-21T06:27:41.721Z,13.70
2019-05-21T06:28:41.701Z,14.10
2019-05-21T06:29:41.679Z,14.10
2019-05-21T06:30:41.665Z,13.70
2019-05-21T06:31:41.689Z,14.20
2019-05-21T06:32:41.643Z,14.70
2019-05-21T06:33:41.631Z,16.00
2019-05-21T06:34:41.623Z,14.40
2019-05-21T06:35:41.666Z,13.90
2019-05-21T06:36:41.603Z,13.40
2019-05-21T06:37:41.608Z,13.90
2019-05-21T06:38:41.586Z,14.00
2019-05-21T06:39:41.567Z,13.60
2019-05-21T06:40:41.567Z,12.90
2019-05-21T06:41:41.547Z,12.10
2019-05-21T06:42:41.555Z,12.20
2019-05-21T06:43:41.532Z,13.00
2019-05-21T06:44:41.536Z,12.20
2019-05-21T06:45:41.503Z,12.80
2019-05-21T06:46:41.498Z,12.60
2019-05-21T06:47:41.511Z,12.40
2019-05-21T06:48:41.479Z,12.00
2019-05-21T06:49:41.492Z,12.80
2019-05-21T06:50:41.454Z,12.00
2019-05-21T06:51:41.439Z,12.30
2019-05-21T06:52:41.454Z,11.90
2019-05-21T06:53:41.469Z,11.40
2019-05-21T06:54:41.411Z,10.30
2019-05-21T06:55:41.397Z,10.30
2019-05-21T06:56:41.393Z,10.30
2019-05-21T06:57:41.381Z,11.40
2019-05-21T06:58:41.377Z,10.30
2019-05-21T06:59:41.360Z,11.40
2019-05-21T07:00:41.348Z,10.50
2019-05-21T07:01:41.336Z,10.60
2019-05-21T07:02:41.327Z,10.40
2019-05-21T07:03:41.324Z,11.00
2019-05-21T07:04:41.311Z,10.00
2019-05-21T07:05:57.608Z,8.90
2019-05-21T07:06:44.733Z,9.10
2019-05-21T07:07:41.275Z,10.00
2019-05-21T07:08:41.270Z,9.20
2019-05-21T07:09:41.255Z,8.10
2019-05-21T07:10:41.237Z,7.80
2019-05-21T07:11:41.227Z,8.20
2019-05-21T07:12:41.223Z,7.90
2019-05-21T07:13:41.261Z,7.90
2019-05-21T07:14:41.206Z,8.10
2019-05-21T07:15:41.215Z,7.70
2019-05-21T07:16:41.190Z,7.50
2019-05-21T07:17:41.168Z,7.70
2019-05-21T07:18:41.718Z,7.90
2019-05-21T07:19:41.161Z,8.20
2019-05-21T07:20:41.139Z,8.70
2019-05-21T07:21:41.127Z,7.40
2019-05-21T07:22:41.156Z,7.60
2019-05-21T07:23:41.120Z,6.90
2019-05-21T07:24:41.105Z,7.40
2019-05-21T07:25:41.097Z,7.50
2019-05-21T07:26:41.071Z,8.00
2019-05-21T07:27:41.081Z,7.40
2019-05-21T07:28:41.064Z,7.60
2019-05-21T07:29:41.043Z,7.50
2019-05-21T07:30:41.037Z,6.80
2019-05-21T07:31:41.022Z,6.80
2019-05-21T07:32:41.012Z,6.90
2019-05-21T07:33:41.005Z,6.50
2019-05-21T07:34:40.988Z,5.90
2019-05-21T07:35:40.986Z,8.00
2019-05-21T07:36:40.976Z,5.50
2019-05-21T07:37:40.961Z,6.20
2019-05-21T07:38:52.822Z,5.80
2019-05-21T07:39:41.939Z,6.50
2019-05-21T07:40:40.925Z,6.00
2019-05-21T07:41:40.918Z,6.10
2019-05-21T07:42:40.915Z,5.70
2019-05-21T07:43:40.916Z,6.80
2019-05-21T07:44:40.895Z,6.40
2019-05-21T07:45:40.879Z,6.20
2019-05-21T07:46:40.867Z,6.90
2019-05-21T07:47:40.863Z,6.90
2019-05-21T07:48:40.853Z,7.20
2019-05-21T07:49:40.846Z,6.50
2019-05-21T07:50:40.820Z,6.70
2019-05-21T07:51:40.809Z,6.80
2019-05-21T07:52:40.806Z,6.40
2019-05-21T07:53:40.795Z,7.00
2019-05-21T07:54:40.806Z,7.10
2019-05-21T07:55:40.776Z,7.80
2019-05-21T07:56:40.757Z,7.10
2019-05-21T07:57:40.755Z,6.50
2019-05-21T07:58:40.742Z,6.70
2019-05-21T07:59:40.739Z,7.60
2019-05-21T08:00:40.748Z,6.80
2019-05-21T08:01:40.713Z,6.20
2019-05-21T08:02:40.697Z,5.80
2019-05-21T08:03:40.690Z,6.30
2019-05-21T08:04:40.680Z,5.50
2019-05-21T08:05:40.681Z,8.20
2019-05-21T08:06:40.783Z,6.10
2019-05-21T08:07:40.649Z,5.10
2019-05-21T08:08:40.636Z,4.50
2019-05-21T08:09:40.630Z,4.40
2019-05-21T08:10:40.614Z,4.40
2019-05-21T08:11:40.611Z,4.30
2019-05-21T08:12:40.617Z,4.40
2019-05-21T08:13:40.588Z,4.40
2019-05-21T08:14:40.573Z,4.20
2019-05-21T08:15:40.564Z,4.50
2019-05-21T08:16:40.587Z,4.90
2019-05-21T08:17:40.550Z,4.40
2019-05-21T08:18:40.539Z,4.60
2019-05-21T08:19:40.531Z,5.00
2019-05-21T08:20:40.541Z,5.20
2019-05-21T08:21:40.505Z,5.30
2019-05-21T08:22:40.505Z,5.10
2019-05-21T08:23:40.603Z,5.00
2019-05-21T08:24:40.480Z,5.20
2019-05-21T08:25:40.461Z,5.40
2019-05-21T08:26:40.456Z,4.40
2019-05-21T08:27:40.460Z,4.30
2019-05-21T08:28:40.437Z,4.90
2019-05-21T08:29:40.427Z,4.80
2019-05-21T08:30:40.423Z,4.30
2019-05-21T08:31:40.436Z,4.40
2019-05-21T08:32:40.393Z,4.90
2019-05-21T08:33:40.380Z,4.20
2019-05-21T08:34:40.376Z,4.00
2019-05-21T08:35:40.364Z,3.80
2019-05-21T08:36:40.360Z,4.00
2019-05-21T08:37:40.369Z,3.90
2019-05-21T08:38:40.331Z,4.00
2019-05-21T08:39:40.320Z,4.00
2019-05-21T08:40:40.316Z,4.30
2019-05-21T08:41:40.310Z,4.10
2019-05-21T08:42:40.295Z,3.30
2019-05-21T08:43:40.290Z,3.30
2019-05-21T08:44:40.275Z,3.40
2019-05-21T08:45:40.261Z,4.20
2019-05-21T08:46:40.257Z,3.90
2019-05-21T08:47:40.242Z,3.80
2019-05-21T08:48:40.271Z,3.70
2019-05-21T08:49:43.943Z,4.70
2019-05-21T08:50:40.219Z,4.10
2019-05-21T08:51:40.209Z,3.90
2019-05-21T08:52:40.202Z,5.30
2019-05-21T08:53:40.250Z,4.30
2019-05-21T08:54:40.183Z,4.60
2019-05-21T08:55:40.180Z,3.20
2019-05-21T08:56:40.274Z,3.30
2019-05-21T08:57:40.154Z,3.20
2019-05-21T08:58:40.139Z,5.30
2019-05-21T08:59:40.201Z,4.00
2019-05-21T09:00:40.118Z,4.20
2019-05-21T09:01:40.118Z,4.20
2019-05-21T09:02:40.094Z,5.00
2019-05-21T09:03:40.088Z,3.90
2019-05-21T09:04:46.148Z,3.90
2019-05-21T09:05:41.064Z,4.70
2019-05-21T09:06:40.061Z,3.40
2019-05-21T09:07:40.057Z,3.30
2019-05-21T09:08:40.035Z,3.30
2019-05-21T09:09:50.004Z,3.90
2019-05-21T09:10:41.032Z,3.70
2019-05-21T09:11:40.011Z,5.90
2019-05-21T09:12:40.000Z,3.40
2019-05-21T09:13:39.991Z,3.20
2019-05-21T09:14:39.979Z,3.50
2019-05-21T09:15:39.965Z,3.40
2019-05-21T09:16:40.020Z,3.40
2019-05-21T09:17:39.945Z,4.00
2019-05-21T09:18:39.941Z,3.20
2019-05-21T09:19:39.930Z,4.00
2019-05-21T09:20:46.542Z,3.00
2019-05-21T09:21:39.914Z,3.10
2019-05-21T09:22:39.905Z,3.60
2019-05-21T09:23:39.892Z,2.90
2019-05-21T09:24:39.882Z,3.20
2019-05-21T09:25:39.877Z,4.70
2019-05-21T09:26:39.855Z,3.40
2019-05-21T09:27:39.869Z,3.90
2019-05-21T09:28:39.842Z,3.00
2019-05-21T09:29:39.825Z,2.90
2019-05-21T09:30:39.818Z,3.10
2019-05-21T09:31:39.810Z,3.80
2019-05-21T09:32:39.814Z,3.90
2019-05-21T09:33:39.790Z,3.70
2019-05-21T09:34:48.870Z,3.00
2019-05-21T09:35:40.766Z,2.90
2019-05-21T09:36:39.754Z,3.00
2019-05-21T09:37:39.776Z,3.40
2019-05-21T09:38:39.737Z,3.60
2019-05-21T09:39:39.733Z,3.20
2019-05-21T09:40:39.722Z,3.70
2019-05-21T09:41:39.711Z,3.30
2019-05-21T09:42:39.705Z,3.20
2019-05-21T09:43:39.695Z,2.70
2019-05-21T09:44:39.693Z,3.70
2019-05-21T09:45:39.763Z,2.80
2019-05-21T09:46:39.660Z,3.30
2019-05-21T09:47:39.765Z,2.70
2019-05-21T09:48:39.648Z,3.70
2019-05-21T09:49:39.627Z,2.80
2019-05-21T09:50:39.613Z,4.00
2019-05-21T09:51:39.603Z,2.90
2019-05-21T09:52:39.603Z,3.30
2019-05-21T09:53:39.589Z,3.80
2019-05-21T09:54:39.582Z,4.30
2019-05-21T09:55:39.562Z,2.70
2019-05-21T09:56:39.557Z,2.80
2019-05-21T09:57:39.552Z,3.10
2019-05-21T09:58:39.533Z,3.40
2019-05-21T09:59:39.524Z,3.40
2019-05-21T10:00:39.520Z,2.60
2019-05-21T10:01:39.508Z,3.60
2019-05-21T10:02:39.517Z,2.90
2019-05-21T10:03:39.479Z,3.10
2019-05-21T10:04:39.472Z,3.20
2019-05-21T10:05:39.459Z,4.20
2019-05-21T10:06:39.449Z,3.80
2019-05-21T10:07:40.693Z,2.90
2019-05-21T10:08:39.445Z,3.00
2019-05-21T10:09:39.427Z,3.60
2019-05-21T10:10:39.443Z,3.20
2019-05-21T10:11:39.410Z,3.50
2019-05-21T10:12:39.391Z,3.00
2019-05-21T10:13:39.392Z,3.30
2019-05-21T10:14:39.371Z,4.00
2019-05-21T10:15:39.357Z,3.10
2019-05-21T10:16:39.353Z,2.60
2019-05-21T10:17:39.344Z,3.10
2019-05-21T10:18:39.335Z,3.10
2019-05-21T10:19:39.321Z,3.70
2019-05-21T10:20:39.322Z,3.10
2019-05-21T10:21:39.298Z,3.20
2019-05-21T10:22:39.291Z,2.80
2019-05-21T10:23:39.285Z,4.40
2019-05-21T10:24:39.271Z,5.00
2019-05-21T10:25:39.316Z,4.30
2019-05-21T10:26:39.262Z,2.90
2019-05-21T10:27:39.239Z,2.90
2019-05-21T10:28:39.229Z,3.60
2019-05-21T10:29:39.220Z,3.00
2019-05-21T10:30:39.271Z,2.90
2019-05-21T10:31:39.200Z,3.10
2019-05-21T10:32:39.197Z,3.50
2019-05-21T10:33:39.177Z,3.40
2019-05-21T10:34:39.177Z,2.90
2019-05-21T10:35:39.155Z,3.00
2019-05-21T10:36:39.193Z,4.40
2019-05-21T10:37:53.734Z,3.40
2019-05-21T10:38:40.122Z,3.20
2019-05-21T10:39:39.118Z,3.30
2019-05-21T10:40:39.114Z,4.40
2019-05-21T10:41:39.109Z,3.10
2019-05-21T10:42:39.086Z,3.00
2019-05-21T10:43:39.076Z,3.10
2019-05-21T10:44:39.067Z,2.90
2019-05-21T10:45:39.067Z,2.60
2019-05-21T10:46:39.056Z,5.30
2019-05-21T10:47:39.032Z,3.80
2019-05-21T10:48:39.022Z,2.80
2019-05-21T10:49:39.018Z,3.50
2019-05-21T10:50:39.021Z,3.20
2019-05-21T10:51:39.032Z,2.80
2019-05-21T10:52:38.990Z,3.30
2019-05-21T10:53:38.991Z,2.80
2019-05-21T10:54:38.985Z,2.90
2019-05-21T10:55:38.958Z,2.60
2019-05-21T10:56:48.050Z,2.60
2019-05-21T10:57:39.949Z,3.00
2019-05-21T10:58:38.936Z,2.70
2019-05-21T10:59:38.915Z,2.60
2019-05-21T11:00:38.904Z,3.30
2019-05-21T11:01:38.897Z,3.30
2019-05-21T11:02:38.915Z,2.40
2019-05-21T11:03:38.881Z,2.50
2019-05-21T11:04:38.878Z,2.40
2019-05-21T11:05:38.856Z,2.30
2019-05-21T11:06:38.852Z,3.80
2019-05-21T11:07:45.922Z,2.40
2019-05-21T11:08:38.835Z,2.80
2019-05-21T11:09:38.819Z,2.60
2019-05-21T11:10:38.816Z,4.60
2019-05-21T11:11:38.814Z,2.30
2019-05-21T11:12:38.806Z,2.60
2019-05-21T11:13:38.790Z,2.10
2019-05-21T11:14:38.793Z,3.90
2019-05-21T11:15:46.656Z,2.50
2019-05-21T11:16:38.754Z,2.80
2019-05-21T11:17:53.347Z,2.60
2019-05-21T11:18:39.783Z,2.50
2019-05-21T11:19:38.723Z,3.00
2019-05-21T11:20:38.712Z,2.40
2019-05-21T11:21:38.711Z,3.00
2019-05-21T11:22:38.695Z,4.80
2019-05-21T11:23:38.700Z,2.60
2019-05-21T11:24:38.691Z,3.70
2019-05-21T11:25:38.678Z,2.40
2019-05-21T11:26:38.653Z,2.30
2019-05-21T11:27:38.644Z,2.70
2019-05-21T11:28:38.635Z,2.50
2019-05-21T11:29:38.665Z,2.30
2019-05-21T11:30:38.639Z,2.50
2019-05-21T11:31:38.614Z,2.40
2019-05-21T11:32:38.592Z,2.50
2019-05-21T11:33:38.590Z,3.10
2019-05-21T11:34:38.660Z,3.30
2019-05-21T11:35:38.563Z,2.90
2019-05-21T11:36:38.573Z,2.60
2019-05-21T11:37:38.542Z,2.80
2019-05-21T11:38:40.345Z,2.80
2019-05-21T11:39:38.539Z,3.40
2019-05-21T11:40:38.516Z,2.80
2019-05-21T11:41:38.530Z,3.10
2019-05-21T11:42:38.504Z,2.70
2019-05-21T11:43:40.830Z,3.80
2019-05-21T11:44:38.542Z,3.00
2019-05-21T11:45:38.594Z,3.00
2019-05-21T11:46:38.461Z,2.60
2019-05-21T11:47:38.456Z,2.50
2019-05-21T11:48:39.137Z,3.00
2019-05-21T11:49:38.486Z,5.40
2019-05-21T11:50:38.444Z,2.90
2019-05-21T11:51:38.419Z,3.60
2019-05-21T11:52:38.391Z,3.00
2019-05-21T11:53:38.393Z,2.50
2019-05-21T11:54:38.371Z,2.60
2019-05-21T11:55:38.368Z,2.60
2019-05-21T11:56:38.379Z,3.10
2019-05-21T11:57:38.345Z,3.50
2019-05-21T11:58:39.689Z,2.90
2019-05-21T11:59:38.357Z,2.70
2019-05-21T12:00:38.326Z,2.90
2019-05-21T12:01:38.307Z,2.80
2019-05-21T12:02:38.424Z,3.40
2019-05-21T12:03:38.280Z,6.70
2019-05-21T12:04:38.273Z,3.00
2019-05-21T12:05:38.304Z,2.80
2019-05-21T12:06:38.266Z,2.70
2019-05-21T12:07:38.243Z,2.50
2019-05-21T12:08:38.260Z,2.70
2019-05-21T12:09:38.224Z,2.60
2019-05-21T12:10:38.223Z,3.20
2019-05-21T12:11:38.215Z,2.40
2019-05-21T12:12:38.192Z,2.60
2019-05-21T12:13:38.180Z,2.80
2019-05-21T12:14:38.184Z,2.90
2019-05-21T12:15:38.182Z,3.20
2019-05-21T12:16:38.152Z,3.30
2019-05-21T12:17:38.141Z,2.60
2019-05-21T12:18:38.139Z,2.50
2019-05-21T12:19:38.126Z,2.90
2019-05-21T12:20:38.122Z,2.70
2019-05-21T12:21:38.095Z,2.80
2019-05-21T12:22:38.089Z,2.60
2019-05-21T12:23:38.089Z,3.40
2019-05-21T12:24:38.083Z,2.50
2019-05-21T12:25:38.089Z,3.70
2019-05-21T12:26:38.060Z,2.80
2019-05-21T12:27:38.057Z,2.80
2019-05-21T12:28:38.041Z,4.20
2019-05-21T12:29:38.019Z,2.80
2019-05-21T12:30:38.008Z,3.00
2019-05-21T12:31:37.995Z,2.70
2019-05-21T12:32:37.993Z,3.20
2019-05-21T12:33:37.992Z,3.10
2019-05-21T12:34:39.014Z,3.20
2019-05-21T12:35:37.956Z,3.20
2019-05-21T12:36:37.947Z,2.80
2019-05-21T12:37:37.932Z,3.20
2019-05-21T12:38:37.963Z,2.90
2019-05-21T12:39:37.915Z,2.50
2019-05-21T12:40:37.909Z,2.80
2019-05-21T12:41:37.904Z,3.70
2019-05-21T12:42:37.881Z,3.40
2019-05-21T12:43:37.883Z,3.00
2019-05-21T12:44:37.879Z,2.80
2019-05-21T12:45:37.858Z,2.40
2019-05-21T12:46:37.845Z,2.60
2019-05-21T12:47:37.837Z,3.10
2019-05-21T12:48:37.823Z,2.50
2019-05-21T12:49:37.826Z,3.10
2019-05-21T12:50:37.809Z,3.20
2019-05-21T12:51:37.815Z,2.50
2019-05-21T12:52:37.789Z,2.60
2019-05-21T12:53:37.775Z,2.80
2019-05-21T12:54:37.762Z,3.10
2019-05-21T12:55:37.763Z,3.30
2019-05-21T12:56:40.769Z,3.10
2019-05-21T12:57:37.750Z,4.00
2019-05-21T12:58:37.723Z,2.90
2019-05-21T12:59:37.713Z,3.20
2019-05-21T13:00:37.710Z,2.80
2019-05-21T13:01:37.696Z,2.70
2019-05-21T13:02:37.685Z,3.00
2019-05-21T13:03:37.684Z,2.50
2019-05-21T13:04:37.669Z,3.40